Time;durP1;ratioP1;P1;durP2;ratioP2;P2;SDS_P1;SDS_P2;PMS_P1;PMS_P2;Temp;Humidity;BMP_temperature;BMP_pressure;BME280_temperature;BME280_humidity;BME280_pressure;Samples;Min_cycle;Max_cycle;Signal;HPM_P1;HPM_P2
2021/09/22 00:02:16;;;;;;;1.88;1.30;;;21.50;99.90;;;;;;5132076;27;20502;-68
2021/09/22 00:04:42;;;;;;;2.13;1.48;;;21.50;99.90;;;;;;5133423;27;20036;-68
2021/09/22 00:07:08;;;;;;;1.73;1.50;;;21.50;99.90;;;;;;5133131;27;20420;-68
2021/09/22 00:09:33;;;;;;;2.40;1.60;;;21.50;99.90;;;;;;5133058;27;20379;-68
2021/09/22 00:11:59;;;;;;;1.60;1.40;;;21.40;99.90;;;;;;5133134;27;20053;-68
2021/09/22 00:14:25;;;;;;;2.08;1.45;;;21.40;99.90;;;;;;5132926;27;20031;-68
2021/09/22 00:16:50;;;;;;;2.03;1.75;;;21.50;99.90;;;;;;5132508;27;20019;-69
2021/09/22 00:19:16;;;;;;;1.75;1.60;;;21.40;99.90;;;;;;5133101;27;20027;-69
2021/09/22 00:21:42;;;;;;;2.45;1.65;;;21.40;99.90;;;;;;5133151;27;20015;-69
2021/09/22 00:24:07;;;;;;;2.03;1.50;;;21.40;99.90;;;;;;5133039;27;20054;-68
2021/09/22 00:26:33;;;;;;;1.80;1.38;;;21.40;99.90;;;;;;5132340;27;20023;-69
2021/09/22 00:28:58;;;;;;;2.78;1.70;;;21.40;99.90;;;;;;5132543;27;20043;-69
2021/09/22 00:31:24;;;;;;;1.92;1.67;;;21.40;99.90;;;;;;5132785;27;20019;-69
2021/09/22 00:33:50;;;;;;;2.15;1.60;;;21.40;99.90;;;;;;5132474;27;20035;-69
2021/09/22 00:36:15;;;;;;;2.33;1.42;;;21.30;99.90;;;;;;5132835;27;20038;-69
2021/09/22 00:38:41;;;;;;;1.73;1.55;;;21.30;99.90;;;;;;5132471;27;20026;-69
2021/09/22 00:41:07;;;;;;;2.05;1.60;;;21.30;99.90;;;;;;5132735;27;20121;-69
2021/09/22 00:43:32;;;;;;;2.45;1.70;;;21.30;99.90;;;;;;5132396;27;20130;-69
2021/09/22 00:46:04;;;;;;;1.92;1.67;;;21.30;99.90;;;;;;5132545;27;20066;-68
2021/09/22 00:48:33;;;;;;;2.45;1.77;;;21.30;99.90;;;;;;5132133;27;20019;-69
2021/09/22 00:51:05;;;;;;;1.73;1.58;;;21.30;99.90;;;;;;5132482;27;20019;-68
2021/09/22 00:53:32;;;;;;;1.60;1.38;;;21.20;99.90;;;;;;5132223;27;20038;-69
2021/09/22 00:55:58;;;;;;;2.08;1.60;;;21.20;99.90;;;;;;5132387;27;20576;-68
2021/09/22 00:58:25;;;;;;;1.70;1.60;;;21.20;99.90;;;;;;5131872;27;20027;-69
2021/09/22 01:00:51;;;;;;;2.83;1.77;;;21.20;99.90;;;;;;5131947;27;20138;-68
2021/09/22 01:03:17;;;;;;;1.70;1.33;;;21.20;99.90;;;;;;5132424;27;20023;-68
2021/09/22 01:05:44;;;;;;;1.35;1.25;;;21.20;99.90;;;;;;5132423;27;20416;-69
2021/09/22 01:08:10;;;;;;;2.00;1.60;;;21.20;99.90;;;;;;5132077;27;20022;-68
2021/09/22 01:10:37;;;;;;;1.40;1.30;;;21.20;99.90;;;;;;5131636;27;20043;-68
2021/09/22 01:13:03;;;;;;;2.38;1.77;;;21.20;99.90;;;;;;5132262;27;20023;-69
2021/09/22 01:15:28;;;;;;;2.30;1.50;;;21.10;99.90;;;;;;5131779;27;20083;-68
2021/09/22 01:17:55;;;;;;;2.03;1.73;;;21.10;99.90;;;;;;5131839;27;20023;-68
2021/09/22 01:20:20;;;;;;;2.03;1.58;;;21.10;99.90;;;;;;5132165;28;20023;-68
2021/09/22 01:22:46;;;;;;;2.60;1.65;;;21.10;99.90;;;;;;5131530;27;20118;-68
2021/09/22 01:25:13;;;;;;;1.70;1.50;;;21.10;99.90;;;;;;5132466;28;20352;-68
2021/09/22 01:27:49;;;;;;;1.40;1.27;;;21.10;99.90;;;;;;5131637;28;20027;-68
2021/09/22 01:30:16;;;;;;;2.00;1.70;;;21.10;99.90;;;;;;5132054;27;20031;-68
2021/09/22 01:32:50;;;;;;;2.15;1.50;;;21.10;99.90;;;;;;5130811;28;20023;-69
2021/09/22 01:35:15;;;;;;;;;;;21.00;99.90;;;;;;5132513;27;20080;-69
2021/09/22 01:37:41;;;;;;;1.77;1.50;;;21.00;99.90;;;;;;5131499;27;19907;-69
2021/09/22 01:40:07;;;;;;;1.52;1.40;;;21.00;99.90;;;;;;5132038;28;20031;-69
2021/09/22 01:42:33;;;;;;;1.70;1.40;;;21.00;99.90;;;;;;5131160;27;20027;-69
2021/09/22 01:45:03;;;;;;;1.88;1.60;;;21.00;99.90;;;;;;5131946;27;20046;-68
2021/09/22 01:47:29;;;;;;;1.73;1.45;;;21.00;99.90;;;;;;5131449;27;20027;-69
2021/09/22 01:50:13;;;;;;;2.63;1.73;;;21.00;99.90;;;;;;5131622;28;20038;-68
2021/09/22 01:52:40;;;;;;;1.75;1.50;;;21.00;99.90;;;;;;5131755;27;20089;-68
2021/09/22 01:55:06;;;;;;;1.80;1.50;;;21.00;99.90;;;;;;5131723;27;20045;-68
2021/09/22 01:57:32;;;;;;;2.30;1.77;;;20.90;99.90;;;;;;5131397;28;20019;-68
2021/09/22 01:59:58;;;;;;;1.73;1.40;;;21.00;99.90;;;;;;5131781;28;20080;-68
2021/09/22 02:02:23;;;;;;;1.77;1.50;;;20.90;99.90;;;;;;5131856;27;20055;-69
2021/09/22 02:04:49;;;;;;;1.65;1.55;;;20.90;99.90;;;;;;5131475;28;20023;-68
2021/09/22 02:07:15;;;;;;;1.60;1.45;;;20.90;99.90;;;;;;5131490;28;20053;-69
2021/09/22 02:09:40;;;;;;;1.50;1.33;;;20.90;99.90;;;;;;5131561;28;20028;-69
2021/09/22 02:12:06;;;;;;;7.68;1.80;;;20.90;99.90;;;;;;5131611;28;20038;-69
2021/09/22 02:14:32;;;;;;;1.95;1.70;;;20.90;99.90;;;;;;5131390;27;20103;-68
2021/09/22 02:16:57;;;;;;;3.10;2.00;;;20.90;99.90;;;;;;5131291;27;20090;-68
2021/09/22 02:19:23;;;;;;;1.83;1.50;;;20.90;99.90;;;;;;5131654;28;20045;-68
2021/09/22 02:21:50;;;;;;;2.00;1.50;;;20.90;99.90;;;;;;5131274;27;20035;-68
2021/09/22 02:24:16;;;;;;;2.10;1.70;;;20.80;99.90;;;;;;5131827;28;20102;-69
2021/09/22 02:26:42;;;;;;;1.85;1.48;;;20.80;99.90;;;;;;5131286;28;20043;-68
2021/09/22 02:29:08;;;;;;;1.70;1.60;;;20.80;99.90;;;;;;5131653;28;20066;-69
2021/09/22 02:31:33;;;;;;;1.40;1.30;;;20.80;99.90;;;;;;5131318;28;20567;-69
2021/09/22 02:34:00;;;;;;;2.25;1.42;;;20.80;99.90;;;;;;5131892;27;20896;-68
2021/09/22 02:36:25;;;;;;;2.30;1.38;;;20.80;99.90;;;;;;5134838;27;20034;-68
2021/09/22 02:38:51;;;;;;;3.20;1.40;;;20.80;99.90;;;;;;5134546;27;20031;-68
2021/09/22 02:41:18;;;;;;;1.75;1.65;;;20.80;99.90;;;;;;5134920;27;20542;-68
2021/09/22 02:43:44;;;;;;;2.88;1.42;;;20.70;99.90;;;;;;5135103;27;20023;-68
2021/09/22 02:46:09;;;;;;;1.73;1.50;;;20.70;99.90;;;;;;5135122;27;20103;-68
2021/09/22 02:48:35;;;;;;;1.55;1.45;;;20.70;99.90;;;;;;5134155;27;20102;-69
2021/09/22 02:51:01;;;;;;;1.77;1.50;;;20.70;99.90;;;;;;5134936;27;20076;-68
2021/09/22 02:53:26;;;;;;;1.90;1.58;;;20.70;99.90;;;;;;5134652;27;20023;-68
2021/09/22 02:55:52;;;;;;;1.70;1.38;;;20.70;99.90;;;;;;5134656;27;20024;-68
2021/09/22 02:58:17;;;;;;;2.00;1.70;;;20.70;99.90;;;;;;5134484;27;20421;-69
2021/09/22 03:00:43;;;;;;;2.05;1.50;;;20.70;99.90;;;;;;5134754;27;20034;-68
2021/09/22 03:03:09;;;;;;;1.80;1.48;;;20.70;99.90;;;;;;5134295;27;20031;-69
2021/09/22 03:05:35;;;;;;;1.77;1.38;;;20.60;99.90;;;;;;5134157;27;20373;-69
2021/09/22 03:08:00;;;;;;;2.20;1.52;;;20.60;99.90;;;;;;5134386;27;20038;-69
2021/09/22 03:10:27;;;;;;;2.20;1.75;;;20.60;99.90;;;;;;5134427;27;20034;-69
2021/09/22 03:12:55;;;;;;;2.00;1.40;;;20.60;99.90;;;;;;5134545;27;20386;-68
2021/09/22 03:15:21;;;;;;;2.13;1.55;;;20.60;99.90;;;;;;5134428;27;20027;-68
2021/09/22 03:17:47;;;;;;;2.10;1.75;;;20.60;99.90;;;;;;5133830;27;20530;-68
2021/09/22 03:20:13;;;;;;;2.15;1.80;;;20.60;99.90;;;;;;5134441;27;20027;-68
2021/09/22 03:22:38;;;;;;;1.90;1.65;;;20.60;99.90;;;;;;5133886;27;20459;-68
2021/09/22 03:25:06;;;;;;;2.15;1.80;;;20.60;99.90;;;;;;5134068;27;20030;-68
2021/09/22 03:27:32;;;;;;;1.73;1.55;;;20.50;99.90;;;;;;5133644;27;20019;-68
2021/09/22 03:29:57;;;;;;;1.92;1.52;;;20.50;99.90;;;;;;5134046;27;20123;-68
2021/09/22 03:32:23;;;;;;;1.95;1.60;;;20.50;99.90;;;;;;5134056;27;20024;-69
2021/09/22 03:34:49;;;;;;;3.65;1.70;;;20.50;99.90;;;;;;5133771;27;20428;-68
2021/09/22 03:37:15;;;;;;;2.20;1.50;;;20.50;99.90;;;;;;5133717;27;20777;-68
2021/09/22 03:39:40;;;;;;;2.08;1.65;;;20.50;99.90;;;;;;5133754;27;20052;-68
2021/09/22 03:42:06;;;;;;;2.25;1.73;;;20.50;99.90;;;;;;5133737;27;20031;-68
2021/09/22 03:44:31;;;;;;;2.08;1.67;;;20.50;99.90;;;;;;5133402;27;20031;-68
2021/09/22 03:46:57;;;;;;;2.22;1.60;;;20.40;99.90;;;;;;5133268;27;20499;-68
2021/09/22 03:49:23;;;;;;;2.85;1.80;;;20.40;99.90;;;;;;5133417;27;20047;-68
2021/09/22 03:51:49;;;;;;;2.90;1.58;;;20.40;99.90;;;;;;5133314;27;20095;-68
2021/09/22 03:54:15;;;;;;;2.28;1.75;;;20.40;99.90;;;;;;5133827;27;20027;-68
2021/09/22 03:56:41;;;;;;;2.20;1.67;;;20.40;99.90;;;;;;5132951;27;20386;-68
2021/09/22 03:59:06;;;;;;;2.20;2.00;;;20.40;99.90;;;;;;5133725;27;20080;-68
2021/09/22 04:01:32;;;;;;;2.55;1.80;;;20.40;99.90;;;;;;5131912;27;20421;-69
2021/09/22 04:03:57;;;;;;;2.20;1.83;;;20.40;99.90;;;;;;5133619;27;20114;-68
2021/09/22 04:06:23;;;;;;;2.35;1.77;;;20.40;99.90;;;;;;5133439;27;20362;-69
2021/09/22 04:08:50;;;;;;;2.03;1.80;;;20.40;99.90;;;;;;5132671;27;20034;-68
2021/09/22 04:11:16;;;;;;;3.47;1.80;;;20.40;99.90;;;;;;5133583;27;20023;-68
2021/09/22 04:13:41;;;;;;;2.20;1.90;;;20.40;99.90;;;;;;5132945;27;20455;-68
2021/09/22 04:16:09;;;;;;;1.92;1.52;;;20.30;99.90;;;;;;5133248;27;20053;-68
2021/09/22 04:18:35;;;;;;;1.58;1.48;;;20.30;99.90;;;;;;5132571;27;20019;-68
2021/09/22 04:21:01;;;;;;;2.17;1.60;;;20.30;99.90;;;;;;5133080;27;20160;-68
2021/09/22 04:23:27;;;;;;;2.20;1.88;;;20.30;99.90;;;;;;5133088;27;20058;-69
2021/09/22 04:25:52;;;;;;;3.25;1.70;;;20.30;99.90;;;;;;5132698;27;20134;-68
2021/09/22 04:28:18;;;;;;;2.33;1.75;;;20.30;99.90;;;;;;5132837;27;20028;-68
2021/09/22 04:30:44;;;;;;;2.42;1.92;;;20.30;99.90;;;;;;5131784;27;20031;-68
2021/09/22 04:33:10;;;;;;;2.65;2.03;;;20.30;99.90;;;;;;5132820;27;20427;-68
2021/09/22 04:35:35;;;;;;;2.45;2.00;;;20.20;99.90;;;;;;5130682;27;20490;-68
2021/09/22 04:38:02;;;;;;;2.20;1.67;;;20.30;99.90;;;;;;5132362;27;20023;-68
2021/09/22 04:40:31;;;;;;;3.83;1.73;;;20.20;99.90;;;;;;5132486;27;20061;-68
2021/09/22 04:42:57;;;;;;;2.33;2.08;;;20.20;99.90;;;;;;5132657;27;20390;-68
2021/09/22 04:45:25;;;;;;;2.00;1.65;;;20.20;99.90;;;;;;5132683;27;20023;-68
2021/09/22 04:47:51;;;;;;;2.00;1.80;;;20.20;99.90;;;;;;5131984;27;20038;-68
2021/09/22 04:50:17;;;;;;;3.30;1.80;;;20.20;99.90;;;;;;5133028;27;20035;-69
2021/09/22 04:52:43;;;;;;;3.25;2.10;;;20.20;99.90;;;;;;5132383;27;20027;-68
2021/09/22 04:55:09;;;;;;;2.28;2.00;;;20.20;99.90;;;;;;5132479;27;20601;-68
2021/09/22 04:57:35;;;;;;;2.45;1.90;;;20.20;99.90;;;;;;5131154;27;20054;-68
2021/09/22 05:00:00;;;;;;;2.72;1.83;;;20.10;99.90;;;;;;5132094;27;20084;-68
2021/09/22 05:02:26;;;;;;;2.92;2.20;;;20.10;99.90;;;;;;5132288;27;20027;-68
2021/09/22 05:04:52;;;;;;;2.35;1.73;;;20.10;99.90;;;;;;5132332;27;20052;-68
2021/09/22 05:07:17;;;;;;;2.15;1.58;;;20.10;99.90;;;;;;5132397;27;20027;-68
2021/09/22 05:09:43;;;;;;;2.97;2.17;;;20.10;99.90;;;;;;5132171;27;20420;-68
2021/09/22 05:12:09;;;;;;;2.53;1.90;;;20.10;99.90;;;;;;5132423;27;20483;-69
2021/09/22 05:14:34;;;;;;;2.40;2.20;;;20.10;99.90;;;;;;5131987;27;20024;-68
2021/09/22 05:17:00;;;;;;;2.67;2.30;;;20.10;99.90;;;;;;5131909;27;20015;-68
2021/09/22 05:19:27;;;;;;;2.15;1.95;;;20.10;99.90;;;;;;5132258;27;20032;-68
2021/09/22 05:21:53;;;;;;;2.22;1.80;;;20.00;99.90;;;;;;5132110;27;20038;-68
2021/09/22 05:24:18;;;;;;;3.30;2.17;;;20.00;99.90;;;;;;5132439;28;20015;-68
2021/09/22 05:26:44;;;;;;;2.10;1.70;;;20.00;99.90;;;;;;5131693;28;20046;-68
2021/09/22 05:29:10;;;;;;;2.65;2.00;;;20.00;99.90;;;;;;5130840;28;20039;-68
2021/09/22 05:31:35;;;;;;;2.00;1.80;;;20.00;99.90;;;;;;5131649;28;20019;-68
2021/09/22 05:34:01;;;;;;;2.63;2.03;;;20.00;99.90;;;;;;5132196;28;20068;-68
2021/09/22 05:36:26;;;;;;;3.78;1.90;;;20.00;99.90;;;;;;5130770;28;20080;-68
2021/09/22 05:38:52;;;;;;;3.78;1.88;;;20.00;99.90;;;;;;5132204;27;20025;-68
2021/09/22 05:41:18;;;;;;;2.22;1.80;;;20.00;99.90;;;;;;5132427;27;20025;-68
2021/09/22 05:43:44;;;;;;;2.28;1.75;;;19.90;99.90;;;;;;5131796;27;20406;-68
2021/09/22 05:46:10;;;;;;;2.45;2.00;;;20.00;99.90;;;;;;5131375;27;20364;-68
2021/09/22 05:48:35;;;;;;;2.90;2.13;;;19.90;99.90;;;;;;5131759;28;20034;-68
2021/09/22 05:51:01;;;;;;;2.97;2.20;;;19.90;99.90;;;;;;5131909;27;20483;-68
2021/09/22 05:53:27;;;;;;;2.60;2.10;;;19.90;99.90;;;;;;5131773;27;20031;-68
2021/09/22 05:55:53;;;;;;;2.60;2.05;;;19.90;99.90;;;;;;5131924;27;20019;-68
2021/09/22 05:58:20;;;;;;;2.45;1.77;;;19.90;99.90;;;;;;5129468;28;20471;-68
2021/09/22 06:00:46;;;;;;;2.20;1.90;;;19.90;99.90;;;;;;5131801;27;20019;-68
2021/09/22 06:03:12;;;;;;;2.75;2.10;;;19.90;99.90;;;;;;5131931;27;20027;-68
2021/09/22 06:05:41;;;;;;;2.78;2.08;;;19.90;99.90;;;;;;5131090;27;20538;-68
2021/09/22 06:08:07;;;;;;;2.33;2.03;;;19.80;99.90;;;;;;5132273;27;20053;-68
2021/09/22 06:10:35;;;;;;;2.45;1.83;;;19.90;99.90;;;;;;5135352;27;20034;-68
2021/09/22 06:13:01;;;;;;;2.60;2.00;;;19.80;99.90;;;;;;5135682;27;20091;-68
2021/09/22 06:15:27;;;;;;;2.60;2.10;;;19.80;99.90;;;;;;5134739;27;20386;-70
2021/09/22 06:17:53;;;;;;;5.22;2.03;;;19.80;99.90;;;;;;5135106;27;20041;-71
2021/09/22 06:20:18;;;;;;;2.78;2.03;;;19.80;99.90;;;;;;5133664;27;20487;-71
2021/09/22 06:22:44;;;;;;;2.63;2.10;;;19.80;99.90;;;;;;5134538;27;20092;-70
2021/09/22 06:25:12;;;;;;;3.60;2.38;;;19.80;99.90;;;;;;5135059;27;20078;-71
2021/09/22 06:27:38;;;;;;;4.32;2.33;;;19.80;99.90;;;;;;5135395;27;20019;-71
2021/09/22 06:30:04;;;;;;;3.25;2.25;;;19.70;99.90;;;;;;5134845;27;20118;-71
2021/09/22 06:32:30;;;;;;;5.35;2.60;;;19.70;99.90;;;;;;5134279;27;20031;-71
2021/09/22 06:34:55;;;;;;;8.52;3.00;;;19.70;99.90;;;;;;5135161;27;20505;-72
2021/09/22 06:37:21;;;;;;;7.75;3.17;;;19.70;99.90;;;;;;5134913;27;20094;-73
2021/09/22 06:39:47;;;;;;;5.22;2.60;;;19.70;99.90;;;;;;5133057;27;20027;-71
2021/09/22 06:42:12;;;;;;;5.57;2.58;;;19.70;99.90;;;;;;5135236;27;20019;-72
2021/09/22 06:44:38;;;;;;;9.13;3.13;;;19.70;99.90;;;;;;5133594;27;20023;-72
2021/09/22 06:47:04;;;;;;;6.97;3.05;;;19.70;99.90;;;;;;5134783;27;20030;-71
2021/09/22 06:49:30;;;;;;;8.68;2.63;;;19.70;99.90;;;;;;5134672;27;20514;-71
2021/09/22 06:51:56;;;;;;;5.93;2.80;;;19.70;99.90;;;;;;5135084;27;20037;-72
2021/09/22 06:54:22;;;;;;;4.38;2.58;;;19.70;99.90;;;;;;5134535;27;20019;-71
2021/09/22 06:56:48;;;;;;;6.30;3.03;;;19.70;99.90;;;;;;5134843;27;20359;-72
2021/09/22 06:59:13;;;;;;;5.00;3.17;;;19.70;99.90;;;;;;5134977;27;20030;-71
2021/09/22 07:01:40;;;;;;;7.57;4.93;;;19.70;99.90;;;;;;5133545;27;20027;-73
2021/09/22 07:04:07;;;;;;;14.77;7.90;;;19.70;99.90;;;;;;5134575;27;20058;-75
2021/09/22 07:06:33;;;;;;;12.48;7.95;;;19.60;99.90;;;;;;5134071;27;20016;-75
2021/09/22 07:08:58;;;;;;;15.25;9.18;;;19.50;99.90;;;;;;5134678;27;20038;-74
2021/09/22 07:11:24;;;;;;;12.38;8.68;;;19.40;99.90;;;;;;5132822;27;20099;-74
2021/09/22 07:13:50;;;;;;;14.02;8.70;;;19.40;99.90;;;;;;5133185;27;20031;-73
2021/09/22 07:16:16;;;;;;;13.85;9.93;;;19.30;99.90;;;;;;5133194;27;20019;-74
2021/09/22 07:18:43;;;;;;;13.30;10.00;;;19.20;99.90;;;;;;5132904;27;20027;-73
2021/09/22 07:21:10;;;;;;;14.48;11.02;;;19.10;99.90;;;;;;5132317;27;20019;-73
2021/09/22 07:23:36;;;;;;;16.70;10.00;;;19.00;99.90;;;;;;5132863;27;20047;-74
2021/09/22 07:26:03;;;;;;;13.65;10.43;;;19.00;99.90;;;;;;5132923;27;20020;-74
2021/09/22 07:28:30;;;;;;;16.48;10.13;;;18.90;99.90;;;;;;5132577;27;20023;-72
2021/09/22 07:30:56;;;;;;;15.88;10.73;;;18.90;99.90;;;;;;5133507;27;20490;-67
2021/09/22 07:33:22;;;;;;;13.35;9.13;;;18.80;99.90;;;;;;5132320;27;20034;-67
2021/09/22 07:35:48;;;;;;;11.20;8.57;;;18.90;99.90;;;;;;5132623;27;20031;-65
2021/09/22 07:38:14;;;;;;;14.43;9.10;;;18.90;99.90;;;;;;5133131;27;20079;-66
2021/09/22 07:40:40;;;;;;;10.25;7.63;;;18.90;99.90;;;;;;5132323;27;20514;-66
2021/09/22 07:43:05;;;;;;;9.38;7.22;;;18.90;99.90;;;;;;5132765;27;20024;-67
2021/09/22 07:45:32;;;;;;;9.23;6.72;;;18.90;99.90;;;;;;5132206;27;20038;-67
2021/09/22 07:47:58;;;;;;;8.07;6.28;;;18.90;99.90;;;;;;5133289;27;20351;-66
2021/09/22 07:50:24;;;;;;;8.32;5.95;;;18.90;99.90;;;;;;5133823;27;20039;-67
2021/09/22 07:52:50;;;;;;;8.80;6.13;;;18.90;99.90;;;;;;5132669;27;20378;-67
2021/09/22 07:55:15;;;;;;;7.47;5.60;;;18.90;99.90;;;;;;5133120;27;20031;-66
2021/09/22 07:57:41;;;;;;;7.20;5.57;;;18.90;99.90;;;;;;5132128;27;20048;-66
2021/09/22 08:00:09;;;;;;;5.85;4.88;;;18.90;99.90;;;;;;5131970;27;20016;-67
2021/09/22 08:02:35;;;;;;;8.25;5.13;;;18.90;99.90;;;;;;5112815;28;20085;-70
2021/09/22 08:05:00;;;;;;;9.15;4.75;;;18.90;99.90;;;;;;5112896;28;20024;-70
2021/09/22 08:07:26;;;;;;;9.43;5.00;;;18.90;99.90;;;;;;5129992;27;20042;-68
2021/09/22 08:09:52;;;;;;;8.55;4.65;;;19.00;99.90;;;;;;5130996;27;20125;-70
2021/09/22 08:12:17;;;;;;;7.93;4.55;;;19.00;99.90;;;;;;5131594;27;20027;-71
2021/09/22 08:14:43;;;;;;;6.80;4.80;;;18.90;99.90;;;;;;5132801;27;20105;-68
2021/09/22 08:17:12;;;;;;;9.18;4.13;;;19.00;99.90;;;;;;5132934;27;20023;-71
2021/09/22 08:19:38;;;;;;;6.97;4.50;;;19.00;99.90;;;;;;5130911;27;20027;-73
2021/09/22 08:22:05;;;;;;;6.00;4.15;;;19.00;99.90;;;;;;5131903;27;20102;-74
2021/09/22 08:24:30;;;;;;;5.97;3.97;;;19.10;99.90;;;;;;5133217;27;20023;-70
2021/09/22 08:26:57;;;;;;;5.43;3.70;;;19.10;99.90;;;;;;5132418;27;20072;-69
2021/09/22 08:29:22;;;;;;;5.03;3.80;;;19.10;99.90;;;;;;5132812;27;20027;-67
2021/09/22 08:31:49;;;;;;;5.15;4.03;;;19.20;99.90;;;;;;5132284;27;20020;-67
2021/09/22 08:34:15;;;;;;;7.53;4.03;;;19.20;99.90;;;;;;5132889;27;20027;-68
2021/09/22 08:36:41;;;;;;;6.72;4.00;;;19.30;99.90;;;;;;5132905;27;20379;-66
2021/09/22 08:39:07;;;;;;;6.38;3.90;;;19.30;99.90;;;;;;5132631;27;20062;-68
2021/09/22 08:41:32;;;;;;;6.60;3.63;;;19.30;99.90;;;;;;5131987;27;20077;-68
2021/09/22 08:44:03;;;;;;;4.20;3.60;;;19.40;99.90;;;;;;5132955;27;20027;-67
2021/09/22 08:46:33;;;;;;;4.20;3.13;;;19.50;99.90;;;;;;5131637;27;20027;-67
2021/09/22 08:49:03;;;;;;;4.82;3.55;;;19.50;99.90;;;;;;5132134;27;20042;-67
2021/09/22 08:51:29;;;;;;;5.55;3.40;;;19.50;99.90;;;;;;5132002;27;20026;-67
2021/09/22 08:53:56;;;;;;;4.90;3.42;;;19.60;99.90;;;;;;5132700;27;20027;-65
2021/09/22 08:56:21;;;;;;;3.95;3.40;;;19.60;99.90;;;;;;5133008;27;20026;-66
2021/09/22 08:58:47;;;;;;;5.55;3.60;;;19.70;99.90;;;;;;5132350;27;20023;-68
2021/09/22 09:01:15;;;;;;;5.82;3.67;;;19.70;99.90;;;;;;5132341;27;20049;-69
2021/09/22 09:03:42;;;;;;;5.30;3.65;;;19.80;99.90;;;;;;5126702;27;20024;-67
2021/09/22 09:06:21;;;;;;;4.28;3.33;;;19.80;99.90;;;;;;5116691;27;20076;-67
2021/09/22 09:08:55;;;;;;;5.45;3.38;;;19.90;99.90;;;;;;5111620;28;20051;-70
2021/09/22 09:11:30;;;;;;;4.85;3.42;;;19.90;99.90;;;;;;5129057;27;20061;-66
2021/09/22 09:13:59;;;;;;;3.80;3.15;;;20.00;99.90;;;;;;5132601;27;20100;-66
2021/09/22 09:16:41;;;;;;;4.80;3.47;;;20.00;99.90;;;;;;5132293;27;20124;-66
2021/09/22 09:19:15;;;;;;;4.13;2.80;;;20.00;99.90;;;;;;5132612;27;20023;-66
2021/09/22 09:22:07;;;;;;;5.50;3.55;;;20.10;99.90;;;;;;5132248;27;20095;-65
2021/09/22 09:24:41;;;;;;;3.88;3.10;;;20.10;99.90;;;;;;5131868;27;20076;-65
2021/09/22 09:27:19;;;;;;;4.32;3.22;;;20.10;99.90;;;;;;5132201;27;20019;-67
2021/09/22 09:29:49;;;;;;;3.85;2.75;;;20.20;99.90;;;;;;5131380;28;20453;-67
2021/09/22 09:32:20;;;;;;;3.65;3.13;;;20.20;99.90;;;;;;5132547;27;20027;-64
2021/09/22 09:35:12;;;;;;;5.38;3.50;;;20.30;99.90;;;;;;5132104;27;20023;-68
2021/09/22 09:37:52;;;;;;;4.88;3.40;;;20.30;99.90;;;;;;5131287;27;20034;-67
2021/09/22 09:40:35;;;;;;;4.93;2.97;;;20.30;99.90;;;;;;5131574;28;20094;-67
2021/09/22 09:43:06;;;;;;;3.80;2.67;;;20.40;99.90;;;;;;5112135;28;20028;-68
2021/09/22 09:45:36;;;;;;;4.80;3.00;;;20.40;99.90;;;;;;5118831;27;20493;-71
2021/09/22 09:48:09;;;;;;;3.92;2.90;;;20.40;99.90;;;;;;5134904;27;20030;-72
2021/09/22 09:50:53;;;;;;;3.78;2.92;;;20.50;99.90;;;;;;5131391;27;20035;-72
2021/09/22 09:53:24;;;;;;;;;;;20.50;99.90;;;;;;5134883;27;20052;-72
2021/09/22 09:55:50;;;;;;;4.18;2.50;;;20.60;99.90;;;;;;5169417;27;20370;-70
2021/09/22 09:58:18;;;;;;;2.85;2.53;;;20.60;99.90;;;;;;5134747;27;20061;-68
2021/09/22 10:00:47;;;;;;;3.40;2.70;;;20.70;99.90;;;;;;5134479;27;20360;-68
2021/09/22 10:03:20;;;;;;;4.50;2.90;;;20.70;99.90;;;;;;5134835;27;20136;-69
2021/09/22 10:05:47;;;;;;;3.63;3.10;;;20.70;99.90;;;;;;5132600;27;20055;-69
2021/09/22 10:08:14;;;;;;;5.35;3.30;;;20.70;99.90;;;;;;5134841;27;20565;-69
2021/09/22 10:10:46;;;;;;;3.33;2.70;;;20.80;99.90;;;;;;5135515;27;20491;-71
2021/09/22 10:13:13;;;;;;;4.57;3.03;;;20.80;99.90;;;;;;5135173;27;20441;-73
2021/09/22 10:15:40;;;;;;;4.50;3.00;;;20.80;99.90;;;;;;5135541;27;20027;-72
2021/09/22 10:18:08;;;;;;;4.20;2.85;;;20.80;99.90;;;;;;5135957;27;20042;-72
2021/09/22 10:20:42;;;;;;;9.15;3.55;;;20.90;99.90;;;;;;5135298;27;20378;-72
2021/09/22 10:23:09;;;;;;;4.15;2.75;;;20.90;99.80;;;;;;5135655;27;20031;-72
2021/09/22 10:25:36;;;;;;;5.68;2.63;;;20.90;99.70;;;;;;5135399;27;20027;-72
2021/09/22 10:28:03;;;;;;;4.05;2.80;;;20.90;99.60;;;;;;5135310;27;20022;-72
2021/09/22 10:30:40;;;;;;;4.45;3.30;;;20.90;99.60;;;;;;5135205;27;20066;-72
2021/09/22 10:33:23;;;;;;;3.28;2.45;;;21.00;99.50;;;;;;5135054;27;20379;-72
2021/09/22 10:35:58;;;;;;;3.50;2.45;;;21.00;99.80;;;;;;5134006;27;20072;-73
2021/09/22 10:38:26;;;;;;;3.67;2.80;;;20.90;99.60;;;;;;5135294;27;20023;-72
2021/09/22 10:41:02;;;;;;;4.30;2.72;;;21.00;99.50;;;;;;5134987;27;20026;-73
2021/09/22 10:43:30;;;;;;;4.78;2.88;;;21.00;99.50;;;;;;5134922;27;20027;-72
2021/09/22 10:46:08;;;;;;;6.20;2.88;;;21.00;99.50;;;;;;5135131;27;20023;-72
2021/09/22 10:48:40;;;;;;;10.15;3.45;;;21.00;99.50;;;;;;5134852;27;20490;-72
2021/09/22 10:51:10;;;;;;;6.03;3.30;;;21.00;99.50;;;;;;5134952;27;20034;-73
2021/09/22 10:53:38;;;;;;;5.28;3.35;;;21.00;99.30;;;;;;5134448;27;20028;-72
2021/09/22 10:56:26;;;;;;;8.10;3.20;;;21.10;99.50;;;;;;5133665;27;20080;-72
2021/09/22 10:58:52;;;;;;;7.20;2.95;;;21.10;99.40;;;;;;5135263;27;20023;-72
2021/09/22 11:01:44;;;;;;;7.55;3.20;;;21.10;99.40;;;;;;5134873;27;20051;-74
2021/09/22 11:04:11;;;;;;;6.90;2.97;;;21.10;99.60;;;;;;5124053;27;20043;-72
2021/09/22 11:06:51;;;;;;;8.10;3.10;;;21.10;99.80;;;;;;5129667;27;20023;-69
2021/09/22 11:09:17;;;;;;;7.30;2.95;;;21.10;99.80;;;;;;5133904;27;20034;-71
2021/09/22 11:14:30;;;;;;;5.93;2.95;;;21.20;99.60;;;;;;5130996;27;20030;-71
2021/09/22 11:17:04;;;;;;;6.20;3.28;;;21.20;99.60;;;;;;5130944;27;20031;-70
2021/09/22 11:19:32;;;;;;;6.40;3.25;;;21.20;99.50;;;;;;5131804;27;20023;-71
2021/09/22 11:22:00;;;;;;;8.55;3.33;;;21.20;99.60;;;;;;5132962;27;20090;-71
2021/09/22 11:24:28;;;;;;;9.70;3.58;;;21.30;99.60;;;;;;5134004;27;20033;-71
2021/09/22 11:27:05;;;;;;;8.10;3.25;;;21.20;99.60;;;;;;5134702;27;20030;-70
2021/09/22 11:29:35;;;;;;;9.30;3.40;;;21.30;99.60;;;;;;5133966;27;20031;-71
2021/09/22 11:32:27;;;;;;;7.30;3.35;;;21.30;99.60;;;;;;5134165;27;20145;-71
2021/09/22 11:34:54;;;;;;;6.68;3.00;;;21.30;99.70;;;;;;5124234;27;20114;-71
2021/09/22 11:37:21;;;;;;;7.47;3.00;;;21.30;99.70;;;;;;5134094;27;20071;-71
2021/09/22 11:39:46;;;;;;;6.63;3.00;;;21.30;99.70;;;;;;5133941;27;20800;-71
2021/09/22 11:42:15;;;;;;;5.78;3.17;;;21.40;99.70;;;;;;5134105;27;20015;-71
2021/09/22 11:44:41;;;;;;;7.68;3.13;;;21.40;99.80;;;;;;5134058;27;20096;-71
2021/09/22 11:47:10;;;;;;;6.47;2.75;;;21.40;99.70;;;;;;5134027;27;20058;-71
2021/09/22 11:49:42;;;;;;;7.78;2.75;;;21.40;99.80;;;;;;5133789;27;20031;-72
2021/09/22 11:52:10;;;;;;;6.50;3.13;;;21.40;99.60;;;;;;5132394;27;20042;-71
2021/09/22 11:54:40;;;;;;;7.88;3.17;;;21.40;99.80;;;;;;5132326;27;20012;-71
2021/09/22 11:57:07;;;;;;;5.63;2.75;;;21.40;99.90;;;;;;5133720;27;20019;-71
2021/09/22 11:59:35;;;;;;;7.00;2.90;;;21.50;99.90;;;;;;5133355;27;20019;-71
2021/09/22 12:02:01;;;;;;;5.22;2.63;;;21.50;99.70;;;;;;5133367;27;20023;-71
2021/09/22 12:04:38;;;;;;;6.88;3.05;;;21.50;99.60;;;;;;5132874;27;20513;-70
2021/09/22 12:07:05;;;;;;;4.97;2.60;;;21.60;99.60;;;;;;5132882;27;20015;-71
2021/09/22 12:09:40;;;;;;;6.07;3.20;;;21.60;99.90;;;;;;5132785;27;20122;-69
2021/09/22 12:12:10;;;;;;;4.47;2.58;;;;;;;;;;5130872;27;20027;-70
2021/09/22 12:14:36;;;;;;;4.75;2.70;;;21.70;99.90;;;;;;5132232;27;20480;-69
2021/09/22 12:17:09;;;;;;;5.47;2.70;;;21.70;99.90;;;;;;5133106;27;20027;-69
2021/09/22 12:19:39;;;;;;;5.95;2.75;;;21.80;99.90;;;;;;5132966;27;20030;-71
2021/09/22 12:22:05;;;;;;;4.78;2.60;;;21.80;99.90;;;;;;5130006;27;20023;-69
2021/09/22 12:24:33;;;;;;;4.43;2.58;;;21.90;99.90;;;;;;5131252;27;20106;-71
2021/09/22 12:26:59;;;;;;;4.47;2.35;;;21.90;99.90;;;;;;5133007;27;20058;-70
2021/09/22 12:29:25;;;;;;;5.00;2.53;;;22.00;99.90;;;;;;5133442;27;20027;-70
2021/09/22 12:31:53;;;;;;;5.00;2.60;;;22.00;99.90;;;;;;5132904;27;20027;-68
2021/09/22 12:34:23;;;;;;;5.10;2.60;;;22.10;99.90;;;;;;5130885;27;20019;-69
2021/09/22 12:36:52;;;;;;;3.42;2.00;;;22.20;99.90;;;;;;5132557;27;20031;-69
2021/09/22 12:39:20;;;;;;;3.08;2.00;;;22.20;99.90;;;;;;5132554;27;20027;-68
2021/09/22 12:41:58;;;;;;;4.63;2.50;;;22.30;99.90;;;;;;5132031;27;20395;-69
2021/09/22 12:44:24;;;;;;;4.32;2.22;;;22.40;99.90;;;;;;5130196;27;20054;-67
2021/09/22 12:46:50;;;;;;;4.43;2.60;;;22.40;99.90;;;;;;5132355;27;20566;-69
2021/09/22 12:49:19;;;;;;;4.55;2.35;;;22.50;99.90;;;;;;5132331;27;20114;-68
2021/09/22 12:51:46;;;;;;;4.82;2.40;;;22.50;99.90;;;;;;5130050;27;20035;-73
2021/09/22 12:54:12;;;;;;;4.68;2.38;;;22.60;99.90;;;;;;5131299;27;20030;-67